createdAt,value
2023-04-16T00:01:20.446Z,99584.66
2023-04-16T00:03:49.193Z,99580.66
2023-04-16T00:06:17.579Z,99583.09
2023-04-16T00:08:46.117Z,99582.03
2023-04-16T00:11:15.033Z,99582.87
2023-04-16T00:13:43.412Z,99589.13
2023-04-16T00:16:11.683Z,99581.00
2023-04-16T00:18:40.240Z,99589.06
2023-04-16T00:21:08.659Z,99593.19
2023-04-16T00:23:37.132Z,99581.00
2023-04-16T00:26:05.513Z,99590.28
2023-04-16T00:28:33.922Z,99597.75
2023-04-16T00:31:02.955Z,99587.97
2023-04-16T00:33:31.426Z,99598.91
2023-04-16T00:35:59.808Z,99600.59
2023-04-16T00:38:30.518Z,99595.66
2023-04-16T00:40:59.446Z,99600.88
2023-04-16T00:43:27.932Z,99607.75
2023-04-16T00:45:57.459Z,99610.53
2023-04-16T00:48:28.123Z,99613.22
2023-04-16T00:50:56.467Z,99609.94
2023-04-16T00:53:24.910Z,99609.00
2023-04-16T00:55:56.156Z,99605.75
2023-04-16T00:58:25.663Z,99609.12
2023-04-16T01:00:54.093Z,99606.13
2023-04-16T01:03:23.656Z,99613.44
2023-04-16T01:05:52.412Z,99604.72
2023-04-16T01:08:22.151Z,99615.66
2023-04-16T01:10:50.513Z,99613.41
2023-04-16T01:13:18.889Z,99612.47
2023-04-16T01:15:47.246Z,99605.81
2023-04-16T01:18:20.870Z,99601.69
2023-04-16T01:20:51.262Z,99606.84
2023-04-16T01:23:19.745Z,99605.91
2023-04-16T01:25:49.383Z,99602.53
2023-04-16T01:28:18.348Z,99611.34
2023-04-16T01:30:47.503Z,99609.94
2023-04-16T01:33:18.205Z,99610.28
2023-04-16T01:35:46.807Z,99613.91
2023-04-16T01:38:17.329Z,99618.25
2023-04-16T01:40:45.566Z,99614.13
2023-04-16T01:43:14.467Z,99616.00
2023-04-16T01:45:42.821Z,99612.91
2023-04-16T01:48:13.317Z,99616.88
2023-04-16T01:50:42.480Z,99614.91
2023-04-16T01:53:10.708Z,99619.03
2023-04-16T01:55:38.968Z,99613.91
2023-04-16T01:58:10.635Z,99618.97
2023-04-16T02:00:40.031Z,99630.91
2023-04-16T02:03:09.896Z,99614.97
2023-04-16T02:05:38.519Z,99617.72
2023-04-16T02:08:06.747Z,99623.50
2023-04-16T02:10:35.202Z,99614.72
2023-04-16T02:13:04.167Z,99616.97
2023-04-16T02:15:32.620Z,99616.84
2023-04-16T02:18:02.013Z,99612.28
2023-04-16T02:20:31.290Z,99614.84
2023-04-16T02:23:00.229Z,99624.12
2023-04-16T02:25:29.023Z,99621.09
2023-04-16T02:27:57.735Z,99619.31
2023-04-16T02:30:26.906Z,99615.44
2023-04-16T02:32:55.112Z,99615.44
2023-04-16T02:35:23.545Z,99624.03
2023-04-16T02:37:51.820Z,99628.00
2023-04-16T02:40:20.012Z,99616.84
2023-04-16T02:42:49.814Z,99619.06
2023-04-16T02:45:18.232Z,99629.50
2023-04-16T02:47:47.615Z,99628.09
2023-04-16T02:50:16.527Z,99630.56
2023-04-16T02:52:45.028Z,99620.03
2023-04-16T02:55:13.432Z,99619.19
2023-04-16T02:57:42.657Z,99630.34
2023-04-16T03:00:11.610Z,99636.44
2023-04-16T03:02:39.963Z,99628.22
2023-04-16T03:05:09.153Z,99636.44
2023-04-16T03:07:39.290Z,99638.53
2023-04-16T03:10:09.076Z,99635.94
2023-04-16T03:12:37.750Z,99637.38
2023-04-16T03:15:08.778Z,99641.81
2023-04-16T03:17:37.024Z,99635.16
2023-04-16T03:20:06.795Z,99648.38
2023-04-16T03:22:35.197Z,99641.47
2023-04-16T03:25:03.566Z,99639.25
2023-04-16T03:27:33.029Z,99639.88
2023-04-16T03:30:01.483Z,99633.69
2023-04-16T03:32:31.029Z,99640.97
2023-04-16T03:34:59.585Z,99641.41
2023-04-16T03:37:28.765Z,99640.84
2023-04-16T03:39:57.021Z,99653.50
2023-04-16T03:42:25.414Z,99654.81
2023-04-16T03:44:57.698Z,99661.00
2023-04-16T03:47:26.203Z,99657.50
2023-04-16T03:49:55.048Z,99669.22
2023-04-16T03:52:23.902Z,99668.63
2023-04-16T03:54:52.847Z,99678.00
2023-04-16T03:57:21.351Z,99674.94
2023-04-16T03:59:49.831Z,99687.41
2023-04-16T04:02:18.588Z,99702.50
2023-04-16T04:04:47.303Z,99696.97
2023-04-16T04:07:16.452Z,99692.94
2023-04-16T04:09:44.746Z,99699.16
2023-04-16T04:12:13.704Z,99698.94
2023-04-16T04:14:41.972Z,99706.81
2023-04-16T04:17:10.482Z,99705.41
2023-04-16T04:19:42.318Z,99702.97
2023-04-16T04:22:15.913Z,99707.56
2023-04-16T04:24:44.314Z,99702.25
2023-04-16T04:27:12.450Z,99705.06
2023-04-16T04:29:40.669Z,99709.41
2023-04-16T04:32:09.194Z,99713.75
2023-04-16T04:34:37.514Z,99706.56
2023-04-16T04:37:06.805Z,99696.97
2023-04-16T04:39:35.502Z,99699.78
2023-04-16T04:42:04.347Z,99688.41
2023-04-16T04:44:32.411Z,99684.31
2023-04-16T04:47:00.899Z,99698.28
2023-04-16T04:49:30.488Z,99701.69
2023-04-16T04:51:58.783Z,99698.88
2023-04-16T04:54:28.650Z,99697.47
2023-04-16T04:56:57.159Z,99702.88
2023-04-16T04:59:25.790Z,99707.56
2023-04-16T05:01:54.511Z,99711.44
2023-04-16T05:04:22.673Z,99717.44
2023-04-16T05:06:51.232Z,99706.97
2023-04-16T05:09:20.585Z,99709.31
2023-04-16T05:11:49.505Z,99725.63
2023-04-16T05:14:17.743Z,99731.16
2023-04-16T05:16:46.279Z,99733.59
2023-04-16T05:19:14.854Z,99735.97
2023-04-16T05:21:43.473Z,99736.19
2023-04-16T05:24:13.679Z,99731.47
2023-04-16T05:26:43.236Z,99727.81
2023-04-16T05:29:11.899Z,99728.97
2023-04-16T05:31:40.337Z,99730.41
2023-04-16T05:34:08.538Z,99736.63
2023-04-16T05:36:37.089Z,99737.59
2023-04-16T05:39:06.355Z,99733.94
2023-04-16T05:41:34.633Z,99734.19
2023-04-16T05:44:03.348Z,99735.22
2023-04-16T05:46:31.521Z,99740.63
2023-04-16T05:48:59.982Z,99740.28
2023-04-16T05:51:29.143Z,99735.31
2023-04-16T05:53:57.320Z,99745.28
2023-04-16T05:56:25.610Z,99738.84
2023-04-16T05:58:54.284Z,99752.25
2023-04-16T06:01:22.670Z,99769.72
2023-04-16T06:03:51.345Z,99763.56
2023-04-16T06:06:19.733Z,99764.72
2023-04-16T06:08:47.850Z,99769.59
2023-04-16T06:11:16.500Z,99776.31
2023-04-16T06:13:44.811Z,99779.22
2023-04-16T06:16:13.063Z,99770.50
2023-04-16T06:18:42.403Z,99769.81
2023-04-16T06:21:10.945Z,99783.59
2023-04-16T06:23:39.340Z,99785.34
2023-04-16T06:26:07.849Z,99787.72
2023-04-16T06:28:36.297Z,99782.97
2023-04-16T06:31:04.736Z,99791.78
2023-04-16T06:33:34.187Z,99777.41
2023-04-16T06:36:02.466Z,99787.91
2023-04-16T06:38:31.156Z,99775.28
2023-04-16T06:41:00.941Z,99779.00
2023-04-16T06:43:30.336Z,99789.38
2023-04-16T06:46:00.753Z,99790.75
2023-04-16T06:48:30.147Z,99788.75
2023-04-16T06:50:58.497Z,99777.09
2023-04-16T06:53:26.966Z,99784.47
2023-04-16T06:55:55.671Z,99786.47
2023-04-16T06:58:24.056Z,99783.31
2023-04-16T07:00:52.545Z,99781.50
2023-04-16T07:03:21.385Z,99792.91
2023-04-16T07:05:49.833Z,99772.47
2023-04-16T07:08:17.850Z,99781.56
2023-04-16T07:10:46.618Z,99777.81
2023-04-16T07:13:15.961Z,99777.47
2023-04-16T07:15:44.333Z,99774.50
2023-04-16T07:18:12.946Z,99780.19
2023-04-16T07:20:41.483Z,99784.62
2023-04-16T07:23:09.533Z,99781.75
2023-04-16T07:25:38.042Z,99784.84
2023-04-16T07:28:06.398Z,99784.44
2023-04-16T07:30:35.296Z,99790.47
2023-04-16T07:33:04.308Z,99793.44
2023-04-16T07:35:32.608Z,99791.28
2023-04-16T07:38:00.958Z,99782.94
2023-04-16T07:40:30.053Z,99789.59
2023-04-16T07:42:58.283Z,99789.38
2023-04-16T07:45:26.374Z,99780.87
2023-04-16T07:47:55.103Z,99783.56
2023-04-16T07:50:23.632Z,99781.59
2023-04-16T07:52:51.793Z,99785.34
2023-04-16T07:55:20.333Z,99782.88
2023-04-16T07:57:49.142Z,99784.34
2023-04-16T08:00:17.418Z,99782.84
2023-04-16T08:02:46.208Z,99782.19
2023-04-16T08:05:14.820Z,99773.03
2023-04-16T08:07:43.170Z,99776.72
2023-04-16T08:10:11.952Z,99769.66
2023-04-16T08:12:40.847Z,99772.13
2023-04-16T08:15:09.405Z,99776.12
2023-04-16T08:17:38.777Z,99780.72
2023-04-16T08:20:07.752Z,99777.63
2023-04-16T08:22:36.703Z,99779.09
2023-04-16T08:25:05.532Z,99782.69
2023-04-16T08:27:33.889Z,99779.56
2023-04-16T08:30:02.346Z,99777.41
2023-04-16T08:32:31.732Z,99776.72
2023-04-16T08:35:00.055Z,99774.75
2023-04-16T08:37:28.085Z,99773.94
2023-04-16T08:39:56.726Z,99768.09
2023-04-16T08:42:48.290Z,99773.81
2023-04-16T08:45:20.021Z,99777.44
2023-04-16T08:47:52.015Z,99777.50
2023-04-16T08:50:24.854Z,99773.84
2023-04-16T08:53:08.170Z,99787.84
2023-04-16T08:55:39.263Z,99787.44
2023-04-16T08:58:22.350Z,99790.09
2023-04-16T09:00:51.782Z,99785.69
2023-04-16T09:03:21.751Z,99789.81
2023-04-16T09:05:51.106Z,99800.72
2023-04-16T09:08:20.257Z,99792.66
2023-04-16T09:10:49.264Z,99800.19
2023-04-16T09:13:20.601Z,99800.41
2023-04-16T09:15:57.268Z,99798.97
2023-04-16T09:18:26.250Z,99809.59
2023-04-16T09:20:56.389Z,99810.28
2023-04-16T09:23:25.138Z,99809.84
2023-04-16T09:25:53.862Z,99810.25
2023-04-16T09:28:42.834Z,99807.25
2023-04-16T09:31:14.609Z,99800.12
2023-04-16T09:33:43.716Z,99810.34
2023-04-16T09:36:12.330Z,99816.03
2023-04-16T09:38:52.288Z,99814.16
2023-04-16T09:41:27.293Z,99818.84
2023-04-16T09:43:56.866Z,99821.59
2023-04-16T09:49:10.231Z,99826.78
2023-04-16T09:51:41.736Z,99830.25
2023-04-16T09:54:10.371Z,99825.66
2023-04-16T09:56:44.001Z,99819.97
2023-04-16T09:59:22.720Z,99824.09
2023-04-16T10:01:53.419Z,99827.56
2023-04-16T10:04:50.792Z,99825.34
2023-04-16T10:07:19.741Z,99812.75
2023-04-16T10:09:49.749Z,99820.63
2023-04-16T10:12:18.198Z,99822.31
2023-04-16T10:14:48.282Z,99814.31
2023-04-16T10:17:19.586Z,99813.91
2023-04-16T10:19:48.696Z,99808.81
2023-04-16T10:22:16.855Z,99812.91
2023-04-16T10:24:47.976Z,99812.09
2023-04-16T10:27:17.283Z,99812.91
2023-04-16T10:29:46.967Z,99813.97
2023-04-16T10:32:17.495Z,99820.84
2023-04-16T10:34:47.050Z,99819.53
2023-04-16T10:37:18.098Z,99805.63
2023-04-16T10:39:46.607Z,99817.87
2023-04-16T10:42:15.486Z,99815.75
2023-04-16T10:44:46.092Z,99823.44
2023-04-16T10:47:15.172Z,99815.75
2023-04-16T10:49:44.035Z,99823.78
2023-04-16T10:52:17.210Z,99811.03
2023-04-16T10:54:48.387Z,99813.16
2023-04-16T10:57:19.833Z,99812.22
2023-04-16T10:59:49.164Z,99810.28
2023-04-16T11:02:19.365Z,99808.22
2023-04-16T11:04:49.685Z,99795.22
2023-04-16T11:07:21.007Z,99793.88
2023-04-16T11:10:06.213Z,99800.38
2023-04-16T11:12:34.492Z,99804.88
2023-04-16T11:15:25.017Z,99801.19
2023-04-16T11:17:53.249Z,99804.63
2023-04-16T11:20:23.530Z,99799.94
2023-04-16T11:22:54.045Z,99802.94
2023-04-16T11:25:26.211Z,99799.38
2023-04-16T11:27:54.987Z,99785.41
2023-04-16T11:30:34.478Z,99794.03
2023-04-16T11:33:08.354Z,99795.78
2023-04-16T11:35:37.234Z,99793.69
2023-04-16T11:38:07.301Z,99785.19
2023-04-16T11:40:36.480Z,99786.16
2023-04-16T11:43:16.236Z,99783.44
2023-04-16T11:46:10.203Z,99784.50
2023-04-16T11:48:53.952Z,99776.00
2023-04-16T11:51:23.713Z,99780.44
2023-04-16T11:53:54.038Z,99781.56
2023-04-16T11:56:26.880Z,99778.47
2023-04-16T11:59:12.813Z,99781.66
2023-04-16T12:01:43.044Z,99777.41
2023-04-16T12:04:13.496Z,99771.59
2023-04-16T12:07:02.117Z,99776.59
2023-04-16T12:09:30.884Z,99770.69
2023-04-16T12:11:59.210Z,99764.63
2023-04-16T12:14:27.588Z,99770.59
2023-04-16T12:16:56.981Z,99767.88
2023-04-16T12:19:25.280Z,99758.38
2023-04-16T12:21:55.237Z,99771.25
2023-04-16T12:24:27.581Z,99761.19
2023-04-16T12:26:56.966Z,99761.66
2023-04-16T12:29:28.015Z,99759.50
2023-04-16T12:31:56.352Z,99759.72
2023-04-16T12:34:41.859Z,99757.09
2023-04-16T12:37:13.657Z,99757.56
2023-04-16T12:39:42.563Z,99751.66
2023-04-16T12:42:12.745Z,99748.31
2023-04-16T12:44:41.522Z,99748.03
2023-04-16T12:47:10.307Z,99747.13
2023-04-16T12:49:38.573Z,99746.75
2023-04-16T12:52:07.260Z,99746.25
2023-04-16T12:54:35.547Z,99736.28
2023-04-16T12:57:03.824Z,99738.72
2023-04-16T12:59:32.433Z,99735.13
2023-04-16T13:02:02.909Z,99737.38
2023-04-16T13:04:32.549Z,99739.56
2023-04-16T13:07:01.489Z,99733.34
2023-04-16T13:09:30.729Z,99733.63
2023-04-16T13:11:59.661Z,99728.63
2023-04-16T13:14:29.801Z,99730.81
2023-04-16T13:17:00.439Z,99724.44
2023-04-16T13:19:31.532Z,99728.81
2023-04-16T13:22:00.398Z,99734.44
2023-04-16T13:24:31.561Z,99731.63
2023-04-16T13:27:02.941Z,99727.16
2023-04-16T13:29:32.041Z,99722.47
2023-04-16T13:32:02.196Z,99727.72
2023-04-16T13:34:33.363Z,99721.47
2023-04-16T13:37:03.160Z,99716.84
2023-04-16T13:39:34.718Z,99714.03
2023-04-16T13:42:04.491Z,99707.78
2023-04-16T13:44:32.708Z,99715.75
2023-04-16T13:47:01.144Z,99712.94
2023-04-16T13:49:29.678Z,99709.03
2023-04-16T13:51:57.954Z,99702.84
2023-04-16T13:54:26.157Z,99710.97
2023-04-16T13:56:54.791Z,99705.75
2023-04-16T13:59:23.429Z,99710.13
2023-04-16T14:01:51.932Z,99695.81
2023-04-16T14:04:22.487Z,99697.19
2023-04-16T14:06:50.826Z,99698.72
2023-04-16T14:09:19.286Z,99702.06
2023-04-16T14:11:47.790Z,99700.06
2023-04-16T14:14:15.933Z,99682.28
2023-04-16T14:16:44.542Z,99685.66
2023-04-16T14:19:14.180Z,99690.06
2023-04-16T14:21:42.822Z,99681.87
2023-04-16T14:24:11.522Z,99696.47
2023-04-16T14:26:39.925Z,99691.38
2023-04-16T14:29:08.229Z,99686.91
2023-04-16T14:31:37.314Z,99678.69
2023-04-16T14:34:06.022Z,99680.31
2023-04-16T14:36:35.248Z,99683.25
2023-04-16T14:39:04.278Z,99673.19
2023-04-16T14:41:32.887Z,99676.62
2023-04-16T14:44:01.281Z,99681.34
2023-04-16T14:46:30.729Z,99675.03
2023-04-16T14:48:59.429Z,99678.47
2023-04-16T14:51:27.819Z,99676.84
2023-04-16T14:53:56.743Z,99670.59
2023-04-16T14:56:25.484Z,99675.22
2023-04-16T14:58:53.622Z,99677.28
2023-04-16T15:01:22.402Z,99675.31
2023-04-16T15:03:51.220Z,99674.84
2023-04-16T15:06:20.201Z,99665.59
2023-04-16T15:08:48.539Z,99682.09
2023-04-16T15:11:17.389Z,99668.34
2023-04-16T15:13:45.653Z,99671.94
2023-04-16T15:16:14.011Z,99668.53
2023-04-16T15:18:42.933Z,99660.56
2023-04-16T15:21:12.687Z,99660.75
2023-04-16T15:23:41.197Z,99665.63
2023-04-16T15:26:09.675Z,99668.44
2023-04-16T15:28:37.936Z,99667.19
2023-04-16T15:31:06.390Z,99664.13
2023-04-16T15:33:34.984Z,99665.84
2023-04-16T15:36:03.995Z,99670.56
2023-04-16T15:38:33.888Z,99678.25
2023-04-16T15:41:02.674Z,99671.91
2023-04-16T15:43:30.844Z,99678.31
2023-04-16T15:45:59.496Z,99676.03
2023-04-16T15:48:31.443Z,99670.63
2023-04-16T15:51:00.042Z,99668.66
2023-04-16T15:53:29.055Z,99676.69
2023-04-16T15:55:57.238Z,99670.75
2023-04-16T15:58:27.586Z,99666.28
2023-04-16T16:00:56.500Z,99663.56
2023-04-16T16:03:25.439Z,99659.78
2023-04-16T16:05:54.194Z,99670.56
2023-04-16T16:08:23.087Z,99671.13
2023-04-16T16:10:52.296Z,99666.03
2023-04-16T16:13:20.824Z,99667.56
2023-04-16T16:15:51.016Z,99675.44
2023-04-16T16:18:22.027Z,99681.84
2023-04-16T16:20:52.963Z,99678.81
2023-04-16T16:23:22.483Z,99680.16
2023-04-16T16:25:51.895Z,99685.94
2023-04-16T16:28:20.952Z,99682.59
2023-04-16T16:30:50.881Z,99677.16
2023-04-16T16:33:20.733Z,99679.09
2023-04-16T16:35:49.159Z,99672.75
2023-04-16T16:38:18.162Z,99680.94
2023-04-16T16:40:46.716Z,99681.59
2023-04-16T16:43:15.275Z,99677.81
2023-04-16T16:45:44.294Z,99677.25
2023-04-16T16:48:12.800Z,99682.44
2023-04-16T16:50:41.562Z,99680.37
2023-04-16T16:53:10.556Z,99676.13
2023-04-16T16:55:38.892Z,99689.13
2023-04-16T16:58:07.769Z,99687.38
2023-04-16T17:00:37.719Z,99687.00
2023-04-16T17:03:06.506Z,99700.09
2023-04-16T17:05:36.976Z,99683.47
2023-04-16T17:08:06.686Z,99685.78
2023-04-16T17:10:35.903Z,99693.47
2023-04-16T17:13:04.458Z,99692.25
2023-04-16T17:15:33.178Z,99695.16
2023-04-16T17:18:02.012Z,99694.31
2023-04-16T17:20:30.553Z,99688.13
2023-04-16T17:22:59.570Z,99690.97
2023-04-16T17:25:28.019Z,99689.78
2023-04-16T17:27:57.035Z,99694.75
2023-04-16T17:30:27.750Z,99686.88
2023-04-16T17:32:56.430Z,99699.47
2023-04-16T17:35:25.102Z,99703.72
2023-04-16T17:37:53.758Z,99699.66
2023-04-16T17:40:22.465Z,99691.28
2023-04-16T17:42:51.585Z,99701.25
2023-04-16T17:45:20.640Z,99702.63
2023-04-16T17:47:49.090Z,99710.87
2023-04-16T17:50:17.645Z,99708.12
2023-04-16T17:52:47.926Z,99705.72
2023-04-16T17:55:16.726Z,99720.31
2023-04-16T17:57:45.131Z,99708.69
2023-04-16T18:00:14.759Z,99713.25
2023-04-16T18:02:43.786Z,99714.31
2023-04-16T18:05:13.025Z,99716.94
2023-04-16T18:07:41.565Z,99722.50
2023-04-16T18:10:10.722Z,99722.50
2023-04-16T18:12:39.118Z,99718.91
2023-04-16T18:15:08.042Z,99711.22
2023-04-16T18:17:36.776Z,99715.97
2023-04-16T18:20:07.311Z,99712.25
2023-04-16T18:22:35.845Z,99705.50
2023-04-16T18:25:06.778Z,99693.69
2023-04-16T18:27:35.373Z,99696.59
2023-04-16T18:30:05.263Z,99697.91
2023-04-16T18:32:35.071Z,99704.78
2023-04-16T18:35:04.572Z,99705.09
2023-04-16T18:37:33.648Z,99707.19
2023-04-16T18:40:02.381Z,99714.75
2023-04-16T18:42:31.789Z,99722.50
2023-04-16T18:45:00.174Z,99735.28
2023-04-16T18:47:28.783Z,99747.22
2023-04-16T18:49:57.770Z,99745.75
2023-04-16T18:52:27.810Z,99742.34
2023-04-16T18:54:56.405Z,99740.22
2023-04-16T18:57:24.818Z,99734.53
2023-04-16T18:59:54.455Z,99730.28
2023-04-16T19:02:22.966Z,99720.97
2023-04-16T19:04:53.503Z,99715.09
2023-04-16T19:07:21.895Z,99723.41
2023-04-16T19:09:50.554Z,99719.66
2023-04-16T19:12:19.863Z,99722.75
2023-04-16T19:14:48.576Z,99720.97
2023-04-16T19:17:17.559Z,99714.25
2023-04-16T19:19:46.639Z,99708.56
2023-04-16T19:22:15.452Z,99712.94
2023-04-16T19:24:44.189Z,99702.50
2023-04-16T19:27:13.096Z,99703.97
2023-04-16T19:29:43.545Z,99703.63
2023-04-16T19:32:14.080Z,99709.00
2023-04-16T19:34:43.360Z,99703.78
2023-04-16T19:37:11.952Z,99714.72
2023-04-16T19:39:40.290Z,99719.63
2023-04-16T19:42:09.033Z,99714.56
2023-04-16T19:44:37.629Z,99711.47
2023-04-16T19:47:06.621Z,99717.38
2023-04-16T19:49:35.656Z,99715.22
2023-04-16T19:52:04.656Z,99707.66
2023-04-16T19:54:37.380Z,99709.66
2023-04-16T19:57:07.707Z,99707.03
2023-04-16T19:59:36.459Z,99712.37
2023-04-16T20:02:06.639Z,99710.56
2023-04-16T20:04:35.902Z,99715.50
2023-04-16T20:07:04.530Z,99705.53
2023-04-16T20:09:33.031Z,99705.47
2023-04-16T20:12:02.761Z,99708.81
2023-04-16T20:14:31.197Z,99713.53
2023-04-16T20:17:00.091Z,99707.97
2023-04-16T20:19:36.125Z,99710.44
2023-04-16T20:22:05.117Z,99713.84
2023-04-16T20:24:34.356Z,99708.97
2023-04-16T20:27:02.622Z,99715.66
2023-04-16T20:29:31.534Z,99706.13
2023-04-16T20:31:59.926Z,99707.66
2023-04-16T20:34:28.727Z,99712.84
2023-04-16T20:36:58.163Z,99708.44
2023-04-16T20:39:27.428Z,99715.81
2023-04-16T20:41:58.463Z,99714.06
2023-04-16T20:44:33.445Z,99711.94
2023-04-16T20:47:02.093Z,99698.56
2023-04-16T20:49:35.012Z,99702.50
2023-04-16T20:52:03.665Z,99697.44
2023-04-16T20:54:32.117Z,99707.41
2023-04-16T20:57:03.180Z,99707.91
2023-04-16T20:59:32.681Z,99706.44
2023-04-16T21:02:01.109Z,99712.63
2023-04-16T21:04:29.606Z,99699.44
2023-04-16T21:07:04.367Z,99693.53
2023-04-16T21:09:32.925Z,99684.72
2023-04-16T21:12:01.853Z,99693.22
2023-04-16T21:14:30.307Z,99686.38
2023-04-16T21:16:58.400Z,99691.59
2023-04-16T21:19:26.922Z,99675.25
2023-04-16T21:21:55.105Z,99674.28
2023-04-16T21:24:23.241Z,99675.22
2023-04-16T21:26:51.688Z,99685.00
2023-04-16T21:29:19.946Z,99694.50
2023-04-16T21:31:48.246Z,99704.00
2023-04-16T21:34:16.757Z,99699.91
2023-04-16T21:36:45.034Z,99702.34
2023-04-16T21:39:14.347Z,99696.31
2023-04-16T21:41:43.097Z,99696.94
2023-04-16T21:44:11.300Z,99703.97
2023-04-16T21:46:39.502Z,99693.03
2023-04-16T21:49:07.965Z,99692.84
2023-04-16T21:51:36.041Z,99688.41
2023-04-16T21:54:04.469Z,99678.41
2023-04-16T21:56:32.943Z,99682.72
2023-04-16T21:59:01.166Z,99683.16
2023-04-16T22:01:29.379Z,99675.69
2023-04-16T22:03:57.850Z,99679.72
2023-04-16T22:06:27.296Z,99678.41
2023-04-16T22:08:55.583Z,99675.16
2023-04-16T22:11:24.236Z,99682.69
2023-04-16T22:13:53.693Z,99679.59
2023-04-16T22:16:21.801Z,99675.66
2023-04-16T22:18:50.685Z,99678.12
2023-04-16T22:21:19.016Z,99665.69
2023-04-16T22:23:47.248Z,99663.41
2023-04-16T22:26:16.635Z,99667.19
2023-04-16T22:28:44.873Z,99662.62
2023-04-16T22:31:13.371Z,99657.06
2023-04-16T22:33:41.944Z,99663.06
2023-04-16T22:36:10.089Z,99655.91
2023-04-16T22:38:38.936Z,99650.00
2023-04-16T22:41:07.606Z,99653.19
2023-04-16T22:43:37.176Z,99651.25
2023-04-16T22:46:09.486Z,99651.78
2023-04-16T22:48:38.811Z,99645.81
2023-04-16T22:51:10.119Z,99644.84
2023-04-16T22:53:38.697Z,99641.56
2023-04-16T22:56:07.270Z,99640.31
2023-04-16T22:58:35.390Z,99651.53
2023-04-16T23:01:04.105Z,99658.75
2023-04-16T23:03:32.410Z,99657.78
2023-04-16T23:06:00.736Z,99648.72
2023-04-16T23:08:29.680Z,99646.81
2023-04-16T23:10:57.841Z,99648.28
2023-04-16T23:13:26.069Z,99642.22
2023-04-16T23:15:54.550Z,99643.09
2023-04-16T23:18:23.010Z,99647.19
2023-04-16T23:20:54.165Z,99639.00
2023-04-16T23:23:23.119Z,99632.31
2023-04-16T23:25:55.081Z,99631.50
2023-04-16T23:28:23.695Z,99634.94
2023-04-16T23:30:52.944Z,99632.66
2023-04-16T23:33:21.563Z,99617.12
2023-04-16T23:35:50.409Z,99625.13
2023-04-16T23:38:19.238Z,99625.63
2023-04-16T23:40:47.374Z,99626.44
2023-04-16T23:43:16.453Z,99629.88
2023-04-16T23:45:44.819Z,99618.44
2023-04-16T23:48:12.885Z,99514.53
2023-04-16T23:50:42.265Z,99621.88
2023-04-16T23:53:10.795Z,99618.75
2023-04-16T23:55:39.494Z,99620.56
2023-04-16T23:58:08.366Z,99611.91
